createdAt,value
2019-04-22T00:02:13.859Z,19.30
2019-04-22T00:04:55.067Z,18.55
2019-04-22T00:07:42.248Z,18.60
2019-04-22T00:10:13.453Z,18.20
2019-04-22T00:12:47.309Z,19.50
2019-04-22T00:15:10.009Z,19.00
2019-04-22T00:17:54.452Z,20.72
2019-04-22T00:20:24.315Z,19.55
2019-04-22T00:22:51.872Z,22.30
2019-04-22T00:25:26.578Z,21.80
2019-04-22T00:27:59.072Z,22.58
2019-04-22T00:30:25.479Z,21.60
2019-04-22T00:33:00.698Z,21.85
2019-04-22T00:35:30.462Z,20.75
2019-04-22T00:40:39.945Z,19.55
2019-04-22T00:43:13.835Z,20.65
2019-04-22T00:45:44.573Z,19.87
2019-04-22T00:48:17.815Z,20.75
2019-04-22T00:50:46.692Z,21.48
2019-04-22T00:56:05.520Z,20.50
2019-04-22T00:58:39.391Z,19.67
2019-04-22T01:01:15.356Z,20.25
2019-04-22T01:06:16.014Z,21.68
2019-04-22T01:08:53.042Z,21.70
2019-04-22T01:11:22.709Z,21.52
2019-04-22T01:13:53.312Z,22.15
2019-04-22T01:16:23.345Z,22.02
2019-04-22T01:18:55.170Z,22.55
2019-04-22T01:21:28.927Z,22.32
2019-04-22T01:23:52.228Z,22.32
2019-04-22T01:26:29.908Z,23.07
2019-04-22T01:28:58.872Z,22.13
2019-04-22T01:31:21.924Z,21.73
2019-04-22T01:34:05.483Z,23.98
2019-04-22T01:36:43.151Z,22.80
2019-04-22T01:39:16.748Z,23.50
2019-04-22T01:41:55.217Z,22.70
2019-04-22T01:44:29.704Z,23.18
2019-04-22T01:46:58.263Z,22.95
2019-04-22T01:49:27.689Z,22.87
2019-04-22T01:52:11.396Z,24.95
2019-04-22T01:54:35.147Z,23.38
2019-04-22T01:56:58.411Z,25.30
2019-04-22T01:59:27.228Z,22.75
2019-04-22T02:02:07.776Z,25.40
2019-04-22T02:04:39.758Z,26.50
2019-04-22T02:07:14.061Z,24.75
2019-04-22T02:12:17.298Z,27.07
2019-04-22T02:17:17.668Z,26.52
2019-04-22T02:19:45.558Z,25.85
2019-04-22T02:22:27.593Z,25.68
2019-04-22T02:27:30.710Z,27.58
2019-04-22T02:29:58.215Z,26.57
2019-04-22T02:32:38.923Z,26.55
2019-04-22T02:40:06.158Z,27.05
2019-04-22T02:42:24.857Z,28.67
2019-04-22T02:45:04.623Z,28.85
2019-04-22T02:47:54.021Z,29.55
2019-04-22T02:50:07.327Z,28.83
2019-04-22T02:55:11.515Z,29.00
2019-04-22T03:00:29.330Z,30.37
2019-04-22T03:03:09.123Z,28.42
2019-04-22T03:05:17.805Z,29.87
2019-04-22T03:07:55.951Z,29.77
2019-04-22T03:10:25.919Z,29.77
2019-04-22T03:13:18.458Z,31.90
2019-04-22T03:15:23.996Z,30.37
2019-04-22T03:18:04.598Z,31.30
2019-04-22T03:20:42.606Z,32.20
2019-04-22T03:23:11.480Z,32.93
2019-04-22T03:25:51.500Z,32.25
2019-04-22T03:27:50.570Z,32.85
2019-04-22T03:33:12.465Z,34.00
2019-04-22T03:35:44.770Z,34.70
2019-04-22T03:38:18.144Z,35.23
2019-04-22T03:40:48.811Z,35.20
2019-04-22T03:43:36.206Z,36.03
2019-04-22T03:45:42.138Z,35.30
2019-04-22T03:48:15.935Z,36.55
2019-04-22T03:50:37.261Z,36.15
2019-04-22T03:53:38.692Z,36.45
2019-04-22T03:55:57.574Z,36.73
2019-04-22T03:58:12.177Z,37.90
2019-04-22T04:00:55.854Z,37.03
2019-04-22T04:03:22.294Z,36.33
2019-04-22T04:10:53.379Z,36.83
2019-04-22T04:16:00.837Z,38.95
2019-04-22T04:18:46.800Z,38.53
2019-04-22T04:21:22.697Z,40.28
2019-04-22T04:23:52.424Z,38.95
2019-04-22T04:26:19.585Z,41.23
2019-04-22T04:31:25.032Z,42.50
2019-04-22T04:33:50.967Z,42.05
2019-04-22T04:38:58.216Z,42.83
2019-04-22T04:46:37.675Z,43.63
2019-04-22T04:49:17.791Z,45.12
2019-04-22T04:51:33.805Z,43.45
2019-04-22T04:54:15.157Z,42.85
2019-04-22T04:56:36.317Z,45.75
2019-04-22T05:01:44.630Z,46.73
2019-04-22T05:06:54.747Z,45.92
2019-04-22T05:09:16.754Z,45.10
2019-04-22T05:12:01.870Z,46.98
2019-04-22T05:14:26.828Z,46.77
2019-04-22T05:16:49.429Z,48.02
2019-04-22T05:19:16.051Z,45.63
2019-04-22T05:21:48.626Z,45.50
2019-04-22T05:26:52.372Z,48.13
2019-04-22T05:29:23.464Z,44.38
2019-04-22T05:34:22.798Z,47.85
2019-04-22T05:36:55.392Z,45.98
2019-04-22T05:39:26.550Z,44.30
2019-04-22T05:41:54.859Z,50.38
2019-04-22T05:44:29.482Z,46.30
2019-04-22T05:46:53.212Z,46.13
2019-04-22T05:49:31.278Z,47.53
2019-04-22T05:52:08.771Z,45.52
2019-04-22T05:54:35.160Z,48.38
2019-04-22T05:57:09.332Z,47.55
2019-04-22T05:59:40.403Z,44.80
2019-04-22T06:02:14.757Z,47.48
2019-04-22T06:04:47.595Z,46.60
2019-04-22T06:07:13.683Z,45.52
2019-04-22T06:09:39.142Z,46.65
2019-04-22T06:12:12.353Z,45.12
2019-04-22T06:14:54.022Z,44.67
2019-04-22T06:17:24.732Z,44.75
2019-04-22T06:19:57.653Z,45.58
2019-04-22T06:22:37.157Z,42.88
2019-04-22T06:25:00.801Z,41.42
2019-04-22T06:27:38.648Z,39.23
2019-04-22T06:30:04.956Z,36.77
2019-04-22T06:32:31.408Z,34.73
2019-04-22T06:35:18.491Z,35.25
2019-04-22T06:37:43.298Z,33.50
2019-04-22T06:40:14.479Z,30.62
2019-04-22T06:42:56.609Z,29.75
2019-04-22T06:45:18.870Z,27.37
2019-04-22T06:50:24.201Z,25.57
2019-04-22T06:52:54.488Z,24.00
2019-04-22T06:55:21.118Z,24.00
2019-04-22T06:57:53.269Z,22.90
2019-04-22T07:00:24.758Z,22.82
2019-04-22T07:03:26.943Z,22.15
2019-04-22T07:05:27.911Z,21.17
2019-04-22T07:08:05.126Z,21.90
2019-04-22T07:10:43.675Z,20.72
2019-04-22T07:13:01.464Z,20.90
2019-04-22T07:15:46.438Z,19.80
2019-04-22T07:18:11.564Z,20.50
2019-04-22T07:20:44.551Z,19.98
2019-04-22T07:23:15.514Z,19.52
2019-04-22T07:28:17.854Z,19.62
2019-04-22T07:30:44.619Z,18.87
2019-04-22T07:33:19.605Z,19.20
2019-04-22T07:38:25.592Z,16.55
2019-04-22T07:40:57.663Z,16.87
2019-04-22T07:45:56.496Z,16.02
2019-04-22T07:48:33.249Z,17.40
2019-04-22T07:51:13.497Z,16.62
2019-04-22T07:53:32.435Z,16.23
2019-04-22T07:56:05.129Z,15.32
2019-04-22T07:58:38.848Z,15.43
2019-04-22T08:01:08.830Z,15.05
2019-04-22T08:03:47.067Z,15.03
2019-04-22T08:06:13.720Z,14.63
2019-04-22T08:08:38.791Z,14.85
2019-04-22T08:11:30.905Z,14.58
2019-04-22T08:13:42.544Z,14.85
2019-04-22T08:16:33.890Z,13.93
2019-04-22T08:18:46.779Z,13.75
2019-04-22T08:21:20.023Z,13.25
2019-04-22T08:23:56.865Z,12.98
2019-04-22T08:26:27.425Z,12.85
2019-04-22T08:29:03.902Z,12.73
2019-04-22T08:31:38.546Z,12.58
2019-04-22T08:34:12.085Z,12.43
2019-04-22T08:36:41.045Z,12.33
2019-04-22T08:42:23.465Z,13.05
2019-04-22T08:45:04.897Z,10.93
2019-04-22T08:47:27.395Z,11.30
2019-04-22T08:52:57.564Z,11.15
2019-04-22T08:55:12.939Z,11.18
2019-04-22T08:58:06.440Z,10.05
2019-04-22T09:00:16.540Z,9.80
2019-04-22T09:03:08.961Z,9.53
2019-04-22T09:05:53.569Z,9.45
2019-04-22T09:08:14.159Z,8.88
2019-04-22T09:10:44.239Z,9.18
2019-04-22T09:13:14.538Z,9.08
2019-04-22T09:16:08.884Z,8.93
2019-04-22T09:18:57.465Z,8.93
2019-04-22T09:27:03.950Z,7.15
2019-04-22T09:29:34.428Z,8.50
2019-04-22T09:32:06.848Z,8.40
2019-04-22T09:34:43.403Z,8.10
2019-04-22T09:37:23.669Z,8.98
2019-04-22T09:39:41.089Z,7.17
2019-04-22T09:48:18.785Z,7.62
2019-04-22T09:50:47.898Z,7.22
2019-04-22T09:53:16.100Z,6.53
2019-04-22T09:56:12.213Z,6.53
2019-04-22T09:59:02.386Z,5.72
2019-04-22T10:01:34.112Z,6.60
2019-04-22T10:07:23.541Z,5.35
2019-04-22T10:12:46.806Z,5.33
2019-04-22T10:16:02.637Z,5.03
2019-04-22T10:18:34.072Z,5.28
2019-04-22T10:21:08.376Z,4.55
2019-04-22T10:23:41.217Z,4.90
2019-04-22T10:34:50.884Z,5.28
2019-04-22T10:37:25.246Z,4.97
2019-04-22T10:40:09.517Z,4.40
2019-04-22T10:42:45.352Z,4.30
2019-04-22T10:45:18.529Z,4.42
2019-04-22T10:47:52.348Z,4.92
2019-04-22T10:51:18.886Z,4.10
2019-04-22T10:56:46.673Z,5.20
2019-04-22T10:59:18.647Z,5.05
2019-04-22T11:11:41.546Z,4.83
2019-04-22T11:14:10.661Z,4.97
2019-04-22T11:16:43.571Z,4.80
2019-04-22T11:19:23.468Z,5.42
2019-04-22T11:22:05.110Z,4.83
2019-04-22T11:24:26.868Z,4.78
2019-04-22T11:26:57.082Z,4.97
2019-04-22T11:29:27.910Z,4.67
2019-04-22T11:31:57.969Z,5.67
2019-04-22T11:34:28.988Z,5.65
2019-04-22T11:36:59.110Z,5.03
2019-04-22T11:39:34.128Z,5.03
2019-04-22T11:42:02.446Z,5.62
2019-04-22T11:44:32.963Z,5.50
2019-04-22T11:47:03.396Z,5.30
2019-04-22T11:49:34.192Z,6.00
2019-04-22T11:52:06.553Z,5.08
2019-04-22T11:54:36.811Z,5.60
2019-04-22T11:57:07.460Z,5.33
2019-04-22T11:59:38.519Z,5.37
2019-04-22T12:02:08.998Z,5.15
2019-04-22T12:04:40.139Z,4.80
2019-04-22T12:07:10.935Z,4.97
2019-04-22T12:09:44.150Z,5.15
2019-04-22T12:12:15.997Z,5.15
2019-04-22T12:14:48.013Z,5.00
2019-04-22T12:17:18.192Z,5.87
2019-04-22T12:19:50.397Z,5.25
2019-04-22T12:22:22.948Z,5.28
2019-04-22T12:24:53.070Z,5.00
2019-04-22T12:27:26.784Z,4.35
2019-04-22T12:29:56.797Z,4.50
2019-04-22T12:32:33.547Z,4.67
2019-04-22T12:37:43.005Z,4.17
2019-04-22T12:40:08.752Z,4.12
2019-04-22T12:42:39.849Z,4.87
2019-04-22T12:45:12.167Z,4.50
2019-04-22T12:47:42.260Z,5.10
2019-04-22T12:50:24.077Z,4.70
2019-04-22T12:52:56.786Z,5.12
2019-04-22T12:55:21.901Z,4.70
2019-04-22T12:57:53.933Z,4.78
2019-04-22T13:00:26.718Z,5.05
2019-04-22T13:02:56.874Z,4.37
2019-04-22T13:05:31.420Z,4.58
2019-04-22T13:08:02.019Z,4.62
2019-04-22T13:10:42.960Z,4.58
2019-04-22T13:13:05.019Z,5.30
2019-04-22T13:15:36.908Z,4.33
2019-04-22T13:18:16.975Z,4.45
2019-04-22T13:20:42.148Z,4.55
2019-04-22T13:23:13.834Z,3.70
2019-04-22T13:25:50.253Z,4.25
2019-04-22T13:28:21.110Z,4.65
2019-04-22T13:30:52.755Z,4.08
2019-04-22T13:33:23.376Z,4.53
2019-04-22T13:35:54.338Z,3.80
2019-04-22T13:38:24.945Z,4.25
2019-04-22T13:41:05.541Z,4.80
2019-04-22T13:43:34.845Z,5.08
2019-04-22T13:46:06.323Z,4.62
2019-04-22T13:48:59.039Z,4.67
2019-04-22T13:51:50.730Z,4.33
2019-04-22T13:54:42.485Z,4.50
2019-04-22T13:56:37.095Z,4.08
2019-04-22T13:59:01.852Z,4.25
2019-04-22T14:01:24.817Z,4.67
2019-04-22T14:04:00.783Z,4.20
2019-04-22T14:06:31.113Z,4.28
2019-04-22T14:09:01.341Z,4.22
2019-04-22T14:11:36.632Z,4.08
2019-04-22T14:14:05.290Z,4.20
2019-04-22T14:16:35.408Z,3.95
2019-04-22T14:19:05.677Z,4.30
2019-04-22T14:21:38.782Z,4.12
2019-04-22T14:24:10.658Z,4.12
2019-04-22T14:26:52.056Z,4.50
2019-04-22T14:29:11.444Z,4.20
2019-04-22T14:31:42.475Z,3.98
2019-04-22T14:34:21.367Z,3.98
2019-04-22T14:36:57.257Z,4.33
2019-04-22T14:39:33.732Z,4.05
2019-04-22T14:42:36.461Z,3.75
2019-04-22T14:48:01.429Z,3.50
2019-04-22T14:50:38.837Z,4.05
2019-04-22T14:53:14.448Z,3.27
2019-04-22T14:55:36.000Z,3.98
2019-04-22T14:58:04.772Z,4.42
2019-04-22T15:00:37.994Z,4.42
2019-04-22T15:03:10.040Z,3.98
2019-04-22T15:05:40.163Z,4.22
2019-04-22T15:08:13.018Z,4.20
2019-04-22T15:10:44.518Z,3.87
2019-04-22T15:13:25.410Z,3.90
2019-04-22T15:18:51.671Z,3.92
2019-04-22T15:21:24.795Z,3.83
2019-04-22T15:23:58.232Z,3.80
2019-04-22T15:26:34.634Z,3.87
2019-04-22T15:29:05.272Z,3.72
2019-04-22T15:31:35.583Z,3.60
2019-04-22T15:34:07.163Z,3.90
2019-04-22T15:36:38.242Z,3.83
2019-04-22T15:39:11.285Z,3.85
2019-04-22T15:41:55.613Z,4.45
2019-04-22T15:44:15.460Z,4.05
2019-04-22T15:46:46.983Z,4.10
2019-04-22T15:49:18.163Z,4.42
2019-04-22T15:51:48.947Z,4.03
2019-04-22T15:54:19.365Z,3.70
2019-04-22T15:56:54.814Z,4.40
2019-04-22T15:59:44.748Z,5.08
2019-04-22T16:02:00.067Z,4.92
2019-04-22T16:04:28.633Z,4.97
2019-04-22T16:07:01.219Z,4.42
2019-04-22T16:09:33.261Z,5.20
2019-04-22T16:12:30.841Z,4.33
2019-04-22T16:14:56.954Z,4.92
2019-04-22T16:17:28.564Z,5.58
2019-04-22T16:19:59.323Z,4.28
2019-04-22T16:22:34.344Z,4.80
2019-04-22T16:25:09.070Z,4.28
2019-04-22T16:27:40.843Z,4.60
2019-04-22T16:30:13.157Z,4.05
2019-04-22T16:32:43.468Z,4.00
2019-04-22T16:35:16.792Z,4.28
2019-04-22T16:37:48.564Z,4.25
2019-04-22T16:40:18.992Z,4.65
2019-04-22T16:42:58.106Z,4.67
2019-04-22T16:45:21.870Z,6.33
2019-04-22T16:47:51.691Z,6.53
2019-04-22T16:50:25.193Z,6.55
2019-04-22T16:52:55.201Z,5.47
2019-04-22T16:55:26.479Z,5.87
2019-04-22T16:57:56.744Z,5.95
2019-04-22T17:00:28.919Z,5.50
2019-04-22T17:03:12.978Z,6.20
2019-04-22T17:06:03.573Z,6.15
2019-04-22T17:08:34.759Z,6.30
2019-04-22T17:11:05.580Z,5.90
2019-04-22T17:13:40.363Z,5.87
2019-04-22T17:16:16.122Z,5.87
2019-04-22T17:18:52.109Z,5.62
2019-04-22T17:21:27.894Z,5.42
2019-04-22T17:24:01.347Z,5.40
2019-04-22T17:26:38.799Z,5.05
2019-04-22T17:29:10.522Z,4.97
2019-04-22T17:31:48.455Z,4.80
2019-04-22T17:34:16.114Z,4.70
2019-04-22T17:36:49.145Z,5.00
2019-04-22T17:39:32.263Z,4.55
2019-04-22T17:42:15.687Z,4.80
2019-04-22T17:44:56.024Z,4.37
2019-04-22T17:47:23.662Z,4.67
2019-04-22T17:50:01.566Z,4.70
2019-04-22T17:52:40.997Z,4.17
2019-04-22T17:55:07.524Z,4.30
2019-04-22T17:57:39.203Z,4.40
2019-04-22T18:00:17.208Z,4.10
2019-04-22T18:02:51.446Z,4.28
2019-04-22T18:05:13.097Z,4.28
2019-04-22T18:08:08.455Z,4.17
2019-04-22T18:10:42.565Z,4.40
2019-04-22T18:13:20.549Z,3.77
2019-04-22T18:15:47.060Z,3.83
2019-04-22T18:18:19.098Z,4.15
2019-04-22T18:20:41.186Z,3.90
2019-04-22T18:23:06.737Z,3.60
2019-04-22T18:25:53.769Z,4.05
2019-04-22T18:28:23.885Z,4.20
2019-04-22T18:30:48.512Z,3.83
2019-04-22T18:33:24.206Z,4.15
2019-04-22T18:35:54.023Z,3.90
2019-04-22T18:38:41.133Z,3.30
2019-04-22T18:41:01.304Z,3.85
2019-04-22T18:43:35.293Z,4.30
2019-04-22T18:48:33.445Z,3.90
2019-04-22T18:51:24.910Z,3.60
2019-04-22T18:54:13.439Z,3.35
2019-04-22T18:56:45.270Z,3.80
2019-04-22T18:59:02.156Z,3.67
2019-04-22T19:01:24.113Z,3.67
2019-04-22T19:04:04.682Z,3.33
2019-04-22T19:06:56.152Z,3.27
2019-04-22T19:09:29.474Z,3.62
2019-04-22T19:12:07.952Z,3.25
2019-04-22T19:14:29.363Z,3.10
2019-04-22T19:17:07.940Z,3.33
2019-04-22T19:19:35.040Z,3.55
2019-04-22T19:22:02.173Z,3.35
2019-04-22T19:24:31.912Z,3.00
2019-04-22T19:27:02.126Z,3.47
2019-04-22T19:29:39.236Z,2.70
2019-04-22T19:32:07.235Z,2.95
2019-04-22T19:34:38.507Z,3.00
2019-04-22T19:37:09.542Z,3.30
2019-04-22T19:39:43.047Z,3.17
2019-04-22T19:42:27.056Z,3.50
2019-04-22T19:44:53.221Z,3.42
2019-04-22T19:47:30.288Z,3.58
2019-04-22T19:49:58.154Z,3.12
2019-04-22T19:52:28.867Z,3.27
2019-04-22T19:54:57.309Z,3.45
2019-04-22T19:57:22.598Z,3.35
2019-04-22T20:00:01.621Z,3.35
2019-04-22T20:03:03.670Z,3.17
2019-04-22T20:05:37.488Z,3.90
2019-04-22T20:08:07.307Z,3.40
2019-04-22T20:10:40.089Z,3.52
2019-04-22T20:13:16.514Z,3.47
2019-04-22T20:15:34.474Z,3.45
2019-04-22T20:20:49.050Z,3.30
2019-04-22T20:23:10.455Z,3.40
2019-04-22T20:25:43.598Z,3.70
2019-04-22T20:28:19.674Z,3.55
2019-04-22T20:30:51.102Z,3.67
2019-04-22T20:33:29.126Z,3.67
2019-04-22T20:35:58.195Z,3.20
2019-04-22T20:38:25.458Z,3.37
2019-04-22T20:40:55.036Z,3.40
2019-04-22T20:43:40.391Z,3.20
2019-04-22T20:46:05.279Z,3.10
2019-04-22T20:48:40.802Z,3.47
2019-04-22T20:51:07.667Z,3.75
2019-04-22T20:53:44.178Z,3.20
2019-04-22T20:56:12.823Z,3.33
2019-04-22T20:58:46.537Z,3.30
2019-04-22T21:01:09.401Z,3.80
2019-04-22T21:03:33.261Z,3.58
2019-04-22T21:06:16.533Z,4.55
2019-04-22T21:08:46.860Z,3.50
2019-04-22T21:11:19.371Z,3.50
2019-04-22T21:13:48.628Z,3.40
2019-04-22T21:16:27.012Z,3.40
2019-04-22T21:18:46.130Z,3.30
2019-04-22T21:21:31.687Z,2.85
2019-04-22T21:23:53.979Z,3.00
2019-04-22T21:26:29.052Z,3.52
2019-04-22T21:29:05.464Z,3.70
2019-04-22T21:31:38.586Z,3.58
2019-04-22T21:34:06.755Z,3.60
2019-04-22T21:36:41.477Z,3.72
2019-04-22T21:39:08.248Z,3.42
2019-04-22T21:41:39.100Z,3.50
2019-04-22T21:44:14.231Z,3.35
2019-04-22T21:46:51.063Z,3.50
2019-04-22T21:49:25.429Z,3.10
2019-04-22T21:51:53.330Z,2.90
2019-04-22T21:54:28.268Z,3.05
2019-04-22T21:57:07.748Z,3.22
2019-04-22T21:59:32.094Z,2.72
2019-04-22T22:02:12.308Z,2.80
2019-04-22T22:04:38.641Z,3.40
2019-04-22T22:06:59.641Z,3.15
2019-04-22T22:09:43.962Z,3.08
2019-04-22T22:12:11.217Z,2.92
2019-04-22T22:14:50.031Z,2.95
2019-04-22T22:17:22.355Z,3.42
2019-04-22T22:19:52.924Z,3.50
2019-04-22T22:22:41.878Z,3.10
2019-04-22T22:24:57.024Z,2.95
2019-04-22T22:27:30.100Z,2.80
2019-04-22T22:30:19.249Z,3.10
2019-04-22T22:32:35.131Z,2.75
2019-04-22T22:35:03.471Z,3.08
2019-04-22T22:37:27.268Z,3.22
2019-04-22T22:39:57.984Z,3.08
2019-04-22T22:42:30.167Z,2.62
2019-04-22T22:45:04.005Z,3.27
2019-04-22T22:47:41.694Z,3.00
2019-04-22T22:50:15.963Z,3.05
2019-04-22T22:55:22.262Z,2.60
2019-04-22T22:57:56.753Z,3.33
2019-04-22T23:00:22.232Z,2.72
2019-04-22T23:03:12.517Z,2.67
2019-04-22T23:05:30.586Z,2.67
2019-04-22T23:07:59.039Z,2.65
2019-04-22T23:10:34.230Z,3.05
2019-04-22T23:13:06.882Z,2.80
2019-04-22T23:15:28.358Z,2.60
2019-04-22T23:17:47.904Z,2.80
2019-04-22T23:20:28.860Z,3.10
2019-04-22T23:23:13.735Z,2.98
2019-04-22T23:25:56.740Z,2.80
2019-04-22T23:28:20.843Z,2.65
2019-04-22T23:31:01.948Z,2.90
2019-04-22T23:33:42.312Z,3.30
2019-04-22T23:36:13.610Z,2.85
2019-04-22T23:38:59.274Z,3.00
2019-04-22T23:41:52.486Z,2.52
2019-04-22T23:44:15.942Z,3.30
2019-04-22T23:46:38.273Z,2.40
2019-04-22T23:49:11.820Z,2.67
2019-04-22T23:52:04.963Z,2.70
2019-04-22T23:54:35.889Z,2.67
2019-04-22T23:56:52.577Z,3.00
